Hlavní strana
METAR-TAF:

METAR-TAF

Letiště :

Sandnessjøen, Norsko

zeměpisná šířka: 65-58N, zeměpisná délka: 012-28E, výška: 1 m

Aktuální stav počasí

Zpráva byla vytvořena před 1 hodinou a 4 minutami, v 18:50 UTC
Západoseverozápadní vítr 16 kt s nárazy do 26 kt, proměnlivý mezi západním a severním
Teplota 8°C
Vlhkost vzduchu 76%
Tlak 995 hPa
Viditelnost 10 km a více
Polojasno ve výšce 1800 ft, Cumulonimbus.
Oblačno až skoro zataženo ve výšce 2500 ft
dešťové přeháňky

METAR: ENST 231850Z 30016G26KT 270V350 9999 SHRA SCT018CB BKN025 08/04 Q0995 RMK WIND 300FT 30019G31KT

Čas: 21:54 (19:54 UTC)


TAF: chybějící

Stav a předpovědi počasí z více než 4 000 letišť (zprávy METAR a TAF).

Červené a žluté tečky na mapě představují dostupné meteorologické stanice.

Když kurzor umístíte na tečku, zobrazí se název stanice.

Pak kliknutím zobrazíte stav a předpověď počasí.

Chcete-li změnit mapu, kliknutím na zelené tlačítko se znaménkem +mapu přiblížíte, kliknutím na zelené tlačítko se znaménkem – mapu oddálíte a kliknutím na zelené šipky přejdete na sousední mapy.


METAR-TAF: